Time;durP1;ratioP1;P1;durP2;ratioP2;P2;SDS_P1;SDS_P2;PMS_P1;PMS_P2;Temp;Humidity;BMP_temperature;BMP_pressure;BME280_temperature;BME280_humidity;BME280_pressure;Samples;Min_cycle;Max_cycle;Signal;HPM_P1;HPM_P2
2022/07/03 00:00:09;;;;;;;3.60;3.30;;;;;;;27.41;49.02;100985.33;1693064;83;22029;-81
2022/07/03 00:02:36;;;;;;;4.00;3.60;;;;;;;27.40;49.02;100992.08;1740172;82;21077;-81
2022/07/03 00:05:03;;;;;;;3.80;3.35;;;;;;;27.39;49.03;100989.86;1693146;84;20982;-81
2022/07/03 00:07:30;;;;;;;4.97;3.25;;;;;;;27.40;49.03;100985.09;1742293;82;21432;-81
2022/07/03 00:09:56;;;;;;;3.60;3.30;;;;;;;27.39;49.03;100987.65;1717389;82;21049;-81
2022/07/03 00:12:23;;;;;;;3.98;3.45;;;;;;;27.40;49.04;100986.48;1720626;81;21132;-81
2022/07/03 00:14:50;;;;;;;3.35;3.05;;;;;;;27.39;49.03;100982.87;1720367;83;21014;-80
2022/07/03 00:17:17;;;;;;;4.10;3.70;;;;;;;27.40;49.03;100992.08;1720824;83;21579;-81
2022/07/03 00:19:43;;;;;;;4.85;3.47;;;;;;;27.40;49.03;100987.30;1720757;83;21031;-81
2022/07/03 00:22:12;;;;;;;3.67;3.37;;;;;;;27.40;49.03;100989.28;1692108;83;21094;-81
2022/07/03 00:24:53;;;;;;;3.77;3.47;;;;;;;27.39;49.04;100987.07;1720748;83;21537;-81
2022/07/03 00:27:21;;;;;;;3.70;3.40;;;;;;;27.39;49.04;100988.47;1720552;83;21616;-81
2022/07/03 00:29:49;;;;;;;3.67;3.37;;;;;;;27.39;49.04;100982.06;1691944;83;21082;-81
2022/07/03 00:32:23;;;;;;;3.58;3.27;;;;;;;27.39;49.04;100989.05;1720808;83;21512;-81
2022/07/03 00:34:52;;;;;;;3.70;3.40;;;;;;;27.38;49.04;100989.63;1720394;83;21082;-81
2022/07/03 00:37:19;;;;;;;4.45;3.40;;;;;;;27.39;49.04;100986.25;1720298;83;21376;-81
2022/07/03 00:39:45;;;;;;;4.15;3.75;;;;;;;27.38;49.03;100990.21;1720534;83;21073;-81
2022/07/03 00:42:12;;;;;;;3.90;3.50;;;;;;;27.38;49.04;100991.03;1720286;83;21085;-81
2022/07/03 00:44:51;;;;;;;4.03;3.62;;;;;;;27.38;49.04;100988.81;1720478;83;21584;-81
2022/07/03 00:47:20;;;;;;;4.83;3.77;;;;;;;27.38;49.05;100981.83;1720443;82;21042;-81
2022/07/03 00:49:51;;;;;;;3.80;3.42;;;;;;;27.38;49.03;100981.25;1720940;82;21503;-81
2022/07/03 00:52:20;;;;;;;4.05;3.65;;;;;;;27.37;49.05;100981.02;1720550;83;21033;-81
2022/07/03 00:54:53;;;;;;;4.87;3.37;;;;;;;27.37;49.04;100984.42;1720437;83;21081;-81
2022/07/03 00:57:20;;;;;;;4.00;3.60;;;;;;;27.37;49.06;100976.04;1720610;83;21152;-81
2022/07/03 00:59:52;;;;;;;3.72;3.33;;;;;;;27.37;49.04;100978.83;1720513;83;21540;-81
2022/07/03 01:02:36;;;;;;;3.65;3.33;;;;;;;27.37;49.06;100978.83;1691753;83;21211;-81
2022/07/03 01:05:18;;;;;;;4.00;3.58;;;;;;;27.37;49.04;100983.02;1720363;83;21037;-81
2022/07/03 01:07:54;;;;;;;4.17;3.77;;;;;;;27.36;49.04;100979.41;1720616;83;21052;-81
2022/07/03 01:10:45;;;;;;;4.17;3.77;;;;;;;27.36;49.02;100977.20;1720920;83;21084;-81
2022/07/03 01:13:39;;;;;;;4.35;3.70;;;;;;;27.36;49.02;100973.02;1720563;83;21096;-81
2022/07/03 01:16:27;;;;;;;4.33;3.92;;;;;;;27.35;49.02;100973.59;1720732;83;21218;-81
2022/07/03 01:19:26;;;;;;;3.45;3.15;;;;;;;27.35;49.03;100975.57;1720492;83;20998;-81
2022/07/03 01:22:27;;;;;;;4.35;3.95;;;;;;;27.34;49.03;100974.76;1720865;83;21053;-81
2022/07/03 01:25:29;;;;;;;4.03;3.62;;;;;;;27.33;49.02;100976.53;1720440;82;21597;-81
2022/07/03 01:28:12;;;;;;;3.92;3.58;;;;;;;27.33;49.03;100974.52;1720676;83;21058;-81
2022/07/03 01:30:53;;;;;;;4.25;3.95;;;;;;;27.32;49.02;100970.71;1720506;83;21174;-81
2022/07/03 01:33:25;;;;;;;4.10;3.70;;;;;;;27.31;49.03;100968.50;1720738;83;21073;-81
2022/07/03 01:36:08;;;;;;;4.72;3.75;;;;;;;27.31;49.05;100976.06;1720536;83;21379;-81
2022/07/03 01:38:37;;;;;;;4.47;3.75;;;;;;;27.32;49.06;100974.91;1720785;83;21058;-81
2022/07/03 01:41:06;;;;;;;4.10;3.65;;;;;;;27.31;49.07;100975.48;1720624;83;21714;-81
2022/07/03 01:43:34;;;;;;;3.83;3.52;;;;;;;27.31;49.05;100969.90;1692213;83;21082;-81
2022/07/03 01:46:03;;;;;;;4.03;3.52;;;;;;;27.31;49.05;100969.08;1720805;83;21034;-81
2022/07/03 01:48:31;;;;;;;4.25;3.83;;;;;;;27.32;49.07;100970.71;1720851;82;20989;-81
2022/07/03 01:50:58;;;;;;;4.35;3.95;;;;;;;27.32;49.07;100967.92;1720467;83;21566;-81
2022/07/03 01:53:26;;;;;;;4.00;3.60;;;;;;;27.32;49.07;100975.72;1720545;83;21065;-81
2022/07/03 01:55:57;;;;;;;3.85;3.50;;;;;;;27.32;49.07;100972.92;1720500;83;21602;-81
2022/07/03 01:58:23;;;;;;;4.40;3.58;;;;;;;27.33;49.06;100976.53;1720733;82;21032;-81
2022/07/03 02:01:18;;;;;;;3.90;3.58;;;;;;;27.33;49.06;100973.74;1720688;83;21042;-81
2022/07/03 02:04:26;;;;;;;4.17;3.77;;;;;;;27.33;49.06;100977.93;1719797;83;21101;-81
2022/07/03 02:07:14;;;;;;;4.10;3.70;;;;;;;27.32;49.02;100982.70;1720080;82;21113;-81
2022/07/03 02:09:58;;;;;;;4.60;3.60;;;;;;;27.32;49.00;100992.48;1711001;83;21185;-81
2022/07/03 02:12:27;;;;;;;3.85;3.55;;;;;;;27.32;49.00;100988.88;1685415;84;21062;-81
2022/07/03 02:15:04;;;;;;;3.80;3.40;;;;;;;27.32;49.01;100990.27;1710036;83;21098;-81
2022/07/03 02:17:41;;;;;;;4.50;3.92;;;;;;;27.31;49.02;100981.66;1706709;83;21115;-81
2022/07/03 02:20:09;;;;;;;3.87;3.58;;;;;;;27.31;49.01;100987.24;1710031;83;21101;-81
2022/07/03 02:22:47;;;;;;;4.15;3.75;;;;;;;27.31;49.00;100990.85;1710353;83;21161;-81
2022/07/03 02:25:26;;;;;;;4.53;3.77;;;;;;;27.31;49.01;100990.85;1710248;83;21035;-81
2022/07/03 02:28:21;;;;;;;4.17;3.70;;;;;;;27.31;49.01;100995.05;1710285;83;21098;-81
2022/07/03 02:30:50;;;;;;;4.22;3.75;;;;;;;27.31;49.01;100994.22;1693125;84;21069;-81
2022/07/03 02:33:19;;;;;;;4.80;3.47;;;;;;;27.31;48.99;101001.21;1710442;83;21604;-81
2022/07/03 02:35:46;;;;;;;4.03;3.63;;;;;;;27.32;49.00;101002.84;1721237;83;21859;-81
2022/07/03 02:38:16;;;;;;;3.83;3.50;;;;;;;27.30;48.98;101004.59;1674551;83;21082;-81
2022/07/03 02:41:08;;;;;;;4.20;3.80;;;;;;;27.30;48.99;101010.17;1721322;83;21062;-81
2022/07/03 02:44:14;;;;;;;5.10;4.25;;;;;;;27.31;49.00;101007.61;1720629;83;21042;-81
2022/07/03 02:46:52;;;;;;;4.00;3.62;;;;;;;27.31;48.99;101012.39;1720988;83;21125;-81
2022/07/03 02:49:48;;;;;;;4.75;3.70;;;;;;;27.30;48.95;101017.16;1720852;82;21117;-81
2022/07/03 02:52:18;;;;;;;5.65;3.85;;;;;;;27.30;48.97;101024.72;1720678;83;21023;-81
2022/07/03 02:54:46;;;;;;;4.20;3.70;;;;;;;27.30;48.95;101026.12;1720815;83;21062;-81
2022/07/03 02:57:15;;;;;;;4.20;3.80;;;;;;;27.29;48.96;101022.51;1720939;82;21118;-81
2022/07/03 03:00:02;;;;;;;4.67;4.10;;;;;;;27.30;48.93;101023.33;1721048;83;21063;-81
2022/07/03 03:02:55;;;;;;;4.83;3.98;;;;;;;27.30;48.95;101021.93;1720521;83;21707;-81
2022/07/03 03:05:46;;;;;;;4.37;3.58;;;;;;;27.28;48.94;101024.48;1720993;83;21097;-81
2022/07/03 03:08:44;;;;;;;4.58;4.17;;;;;;;27.29;48.92;101021.11;1720917;83;21134;-81
2022/07/03 03:11:44;;;;;;;4.17;3.77;;;;;;;27.29;48.92;101019.72;1723852;82;21515;-81
2022/07/03 03:14:13;;;;;;;5.00;3.85;;;;;;;27.28;48.91;101020.30;1720871;83;21942;-81
2022/07/03 03:16:50;;;;;;;4.50;3.77;;;;;;;27.28;48.92;101015.91;1718169;82;21147;-81
2022/07/03 03:19:26;;;;;;;4.00;3.60;;;;;;;27.26;48.92;101014.27;1681269;84;21089;-81
2022/07/03 03:22:07;;;;;;;4.40;4.00;;;;;;;27.27;48.93;101015.09;1683659;83;21068;-81
2022/07/03 03:24:34;;;;;;;4.30;3.70;;;;;;;27.28;48.92;101022.31;1706198;84;21586;-81
2022/07/03 03:27:00;;;;;;;4.20;3.80;;;;;;;27.28;48.92;101020.30;1709974;83;21379;-81
2022/07/03 03:29:27;;;;;;;4.20;3.80;;;;;;;27.28;48.92;101019.52;1707529;84;21128;-81
2022/07/03 03:31:53;;;;;;;4.33;3.80;;;;;;;27.28;48.92;101024.48;1683263;83;21017;-81
2022/07/03 03:34:20;;;;;;;4.28;3.70;;;;;;;27.28;48.92;101027.89;1707399;84;21534;-81
2022/07/03 03:36:47;;;;;;;4.53;3.70;;;;;;;27.28;48.91;101018.91;1709611;83;20969;-81
2022/07/03 03:39:13;;;;;;;4.30;3.30;;;;;;;27.28;48.90;101027.28;1680485;84;21053;-81
2022/07/03 03:41:40;;;;;;;4.17;3.75;;;;;;;27.29;48.90;101025.30;1709481;83;21400;-81
2022/07/03 03:44:06;;;;;;;4.20;3.52;;;;;;;27.30;48.87;101026.12;1707173;84;21033;-81
2022/07/03 03:46:33;;;;;;;4.15;3.75;;;;;;;27.30;48.86;101024.14;1715817;82;21641;-81
2022/07/03 03:48:59;;;;;;;4.40;3.90;;;;;;;27.30;48.88;101026.94;1707156;84;21053;-81
2022/07/03 03:51:25;;;;;;;4.00;3.60;;;;;;;27.30;48.86;101026.94;1711014;82;21073;-81
2022/07/03 03:53:51;;;;;;;4.97;3.70;;;;;;;27.31;48.86;101028.56;1738084;82;21593;-81
2022/07/03 03:56:18;;;;;;;4.42;4.03;;;;;;;27.31;48.85;101027.75;1720775;83;20992;-81
2022/07/03 03:58:44;;;;;;;4.33;3.90;;;;;;;27.32;48.84;101026.59;1741399;81;21100;-81
2022/07/03 04:01:11;;;;;;;4.53;3.52;;;;;;;27.31;48.85;101023.56;1720394;83;21068;-81
2022/07/03 04:03:40;;;;;;;4.20;3.80;;;;;;;27.31;48.84;101020.77;1741186;81;21166;-81
2022/07/03 04:06:06;;;;;;;4.20;3.40;;;;;;;27.31;48.82;101029.97;1720686;83;21605;-81
2022/07/03 04:08:33;;;;;;;4.50;3.98;;;;;;;27.31;48.82;101029.15;1740954;81;21495;-81
2022/07/03 04:11:00;;;;;;;4.95;4.05;;;;;;;27.31;48.82;101025.77;1741500;82;21052;-81
2022/07/03 04:13:26;;;;;;;5.28;3.83;;;;;;;27.32;48.79;101025.19;1741378;82;21147;-81
2022/07/03 04:15:53;;;;;;;4.35;3.70;;;;;;;27.32;48.79;101037.77;1741490;82;21080;-81
2022/07/03 04:18:19;;;;;;;4.20;3.80;;;;;;;27.31;48.78;101035.55;1741594;82;21113;-81
2022/07/03 04:20:46;;;;;;;4.58;3.98;;;;;;;27.31;48.77;101038.34;1741559;82;21702;-81
2022/07/03 04:23:13;;;;;;;4.83;4.05;;;;;;;27.33;48.78;101038.00;1741342;82;21088;-81
2022/07/03 04:25:39;;;;;;;4.20;3.80;;;;;;;27.32;48.75;101037.19;1711795;82;21106;-81
2022/07/03 04:28:05;;;;;;;4.33;3.70;;;;;;;27.33;48.76;101042.19;1710894;82;21139;-81
2022/07/03 04:30:32;;;;;;;5.40;3.95;;;;;;;27.33;48.74;101043.59;1720920;83;23164;-81
2022/07/03 04:32:58;;;;;;;4.20;3.90;;;;;;;27.32;48.72;101041.95;1720997;83;21036;-81
2022/07/03 04:35:24;;;;;;;4.28;3.87;;;;;;;27.32;48.72;101039.16;1718328;83;20997;-81
2022/07/03 04:37:51;;;;;;;4.20;3.77;;;;;;;27.33;48.72;101039.39;1707458;84;21089;-81
2022/07/03 04:40:17;;;;;;;4.15;3.52;;;;;;;27.32;48.70;101042.77;1721107;83;21071;-81
2022/07/03 04:42:44;;;;;;;4.58;4.08;;;;;;;27.32;48.72;101041.38;1718079;83;21083;-81
2022/07/03 04:45:10;;;;;;;4.30;3.87;;;;;;;27.33;48.70;101047.77;1707410;84;21041;-81
2022/07/03 04:47:37;;;;;;;4.55;4.10;;;;;;;27.32;48.70;101041.38;1710104;83;21120;-81
2022/07/03 04:50:04;;;;;;;3.80;3.50;;;;;;;27.32;48.69;101046.96;1708178;82;20955;-81
2022/07/03 04:52:30;;;;;;;4.80;3.77;;;;;;;27.32;48.69;101034.97;1733546;82;21059;-81
2022/07/03 04:54:57;;;;;;;4.08;3.67;;;;;;;27.33;48.70;101037.39;1733647;82;21142;-81
2022/07/03 04:57:23;;;;;;;4.25;3.87;;;;;;;27.32;48.66;101038.58;1733742;82;21109;-81
2022/07/03 04:59:55;;;;;;;5.85;3.87;;;;;;;27.33;48.69;101039.39;1733412;82;21122;-81
2022/07/03 05:02:22;;;;;;;4.25;3.85;;;;;;;27.33;48.69;101043.59;1733472;82;21062;-81
2022/07/03 05:04:48;;;;;;;4.25;3.85;;;;;;;27.33;48.68;101046.38;1723907;83;21027;-81
2022/07/03 05:07:15;;;;;;;4.12;3.72;;;;;;;27.32;48.66;101041.38;1733590;82;21159;-81
2022/07/03 05:09:41;;;;;;;4.03;3.62;;;;;;;27.33;48.65;101042.19;1733554;82;21624;-81
2022/07/03 05:12:13;;;;;;;4.60;3.77;;;;;;;27.32;48.65;101042.77;1733417;82;21117;-81
2022/07/03 05:14:39;;;;;;;4.40;3.50;;;;;;;27.33;48.64;101051.36;1733501;82;21078;-81
2022/07/03 05:17:06;;;;;;;4.42;3.95;;;;;;;27.33;48.64;101049.17;1733872;82;21106;-81
2022/07/03 05:19:32;;;;;;;4.30;3.58;;;;;;;27.32;48.66;101048.36;1733873;82;21540;-81
2022/07/03 05:21:59;;;;;;;5.37;4.03;;;;;;;27.32;48.63;101049.75;1733431;82;21535;-81
2022/07/03 05:24:25;;;;;;;4.87;4.20;;;;;;;27.32;48.62;101052.55;1733919;82;21098;-81
2022/07/03 05:26:57;;;;;;;4.53;3.65;;;;;;;27.32;48.63;101051.73;1733725;82;21106;-82
2022/07/03 05:29:24;;;;;;;4.28;3.77;;;;;;;27.33;48.64;101051.36;1685384;82;21047;-82
2022/07/03 05:31:50;;;;;;;4.12;3.55;;;;;;;27.32;48.61;101048.94;1733718;82;21114;-82
2022/07/03 05:34:17;;;;;;;4.40;4.00;;;;;;;27.32;48.61;101052.55;1733652;82;21106;-82
2022/07/03 05:36:43;;;;;;;4.67;3.98;;;;;;;27.32;48.61;101052.55;1735654;81;21071;-81
2022/07/03 05:41:54;;;;;;;4.67;4.15;;;;;;;27.32;48.59;101059.53;1720437;83;21087;-81
2022/07/03 05:44:21;;;;;;;4.28;3.83;;;;;;;27.33;48.58;101057.55;1720394;83;21184;-81
2022/07/03 05:46:54;;;;;;;4.45;4.05;;;;;;;27.31;48.59;101055.11;1720582;83;21068;-81
2022/07/03 05:49:20;;;;;;;4.10;3.70;;;;;;;27.33;48.58;101061.13;1716336;83;21101;-81
2022/07/03 05:51:47;;;;;;;3.77;3.42;;;;;;;27.33;48.59;101065.94;1714875;83;21540;-81
2022/07/03 05:54:13;;;;;;;4.15;3.50;;;;;;;27.32;48.58;101065.13;1714984;83;20946;-81
2022/07/03 05:56:39;;;;;;;5.47;3.85;;;;;;;27.33;48.57;101068.12;1714789;83;22043;-81
2022/07/03 05:59:06;;;;;;;4.55;4.00;;;;;;;27.34;48.58;101071.73;1715151;83;21081;-81
2022/07/03 06:01:32;;;;;;;3.98;3.58;;;;;;;27.33;48.57;101072.31;1714979;83;21057;-81
2022/07/03 06:03:59;;;;;;;4.65;3.70;;;;;;;27.34;48.56;101070.33;1714785;83;21544;-81
2022/07/03 06:06:25;;;;;;;4.22;3.83;;;;;;;27.33;48.56;101069.52;1715125;83;21124;-81
2022/07/03 06:08:52;;;;;;;5.30;3.65;;;;;;;27.33;48.56;101063.14;1714995;83;21418;-81
2022/07/03 06:11:18;;;;;;;3.87;3.50;;;;;;;27.34;48.56;101064.74;1717825;83;21097;-81
2022/07/03 06:13:45;;;;;;;4.58;4.10;;;;;;;27.33;48.53;101064.54;1721753;82;21074;-81
2022/07/03 06:16:11;;;;;;;4.33;3.92;;;;;;;27.33;48.52;101067.33;1711939;83;21488;-81
2022/07/03 06:18:38;;;;;;;3.98;3.67;;;;;;;27.34;48.52;101064.74;1723860;82;21070;-81
2022/07/03 06:21:04;;;;;;;4.28;3.87;;;;;;;27.35;48.53;101073.36;1724145;82;21126;-81
2022/07/03 06:23:30;;;;;;;4.35;3.83;;;;;;;27.34;48.51;101072.55;1723890;81;21044;-81
2022/07/03 06:25:57;;;;;;;4.17;3.75;;;;;;;27.34;48.50;101071.14;1723729;83;21539;-81
2022/07/03 06:28:23;;;;;;;4.40;3.65;;;;;;;27.34;48.53;101066.95;1724031;82;21056;-81
2022/07/03 06:30:50;;;;;;;4.22;3.83;;;;;;;27.35;48.50;101069.17;1724018;82;21559;-81
2022/07/03 06:33:17;;;;;;;4.15;3.70;;;;;;;27.34;48.48;101066.95;1723773;81;21713;-81
2022/07/03 06:35:44;;;;;;;4.58;3.83;;;;;;;27.34;48.49;101064.16;1723860;83;21052;-81
2022/07/03 06:38:16;;;;;;;4.42;3.90;;;;;;;27.36;48.47;101068.01;1723686;81;21456;-81
2022/07/03 06:40:42;;;;;;;4.03;3.62;;;;;;;27.36;48.47;101069.41;1723686;82;21571;-81
2022/07/03 06:43:08;;;;;;;4.00;3.60;;;;;;;27.36;48.44;101066.03;1723998;82;21119;-81
2022/07/03 06:45:35;;;;;;;4.58;3.72;;;;;;;27.37;48.44;101065.45;1724063;82;21128;-82
2022/07/03 06:48:01;;;;;;;4.30;3.90;;;;;;;27.37;48.43;101068.24;1719577;82;21667;-82
2022/07/03 06:50:27;;;;;;;4.87;3.50;;;;;;;27.38;48.45;101073.45;1706071;81;21483;-82
2022/07/03 06:52:53;;;;;;;4.28;3.87;;;;;;;27.38;48.42;101065.07;1689292;83;21260;-81
2022/07/03 06:55:20;;;;;;;3.92;3.55;;;;;;;27.38;48.43;101064.25;1689057;83;21066;-81
2022/07/03 06:57:46;;;;;;;4.28;3.87;;;;;;;27.38;48.41;101065.07;1689279;83;21116;-81
2022/07/03 07:00:16;;;;;;;4.17;3.77;;;;;;;27.38;48.45;101066.47;1689301;84;21105;-82
2022/07/03 07:02:42;;;;;;;4.42;3.98;;;;;;;27.40;48.41;101063.33;1689130;84;21069;-81
2022/07/03 07:05:09;;;;;;;4.30;3.90;;;;;;;27.41;48.42;101067.75;1689053;84;21659;-81
2022/07/03 07:07:35;;;;;;;4.33;3.80;;;;;;;27.41;48.44;101064.37;1663673;83;21201;-81
2022/07/03 07:10:01;;;;;;;3.98;3.58;;;;;;;27.41;48.44;101063.56;1689289;83;21470;-81
2022/07/03 07:12:28;;;;;;;4.50;4.10;;;;;;;27.41;48.42;101065.77;1689442;84;21132;-81
2022/07/03 07:14:54;;;;;;;5.65;4.00;;;;;;;27.43;48.44;101066.80;1689228;84;21080;-81
2022/07/03 07:17:20;;;;;;;4.60;3.65;;;;;;;27.43;48.43;101059.23;1688873;84;21133;-81
2022/07/03 07:19:47;;;;;;;4.50;3.40;;;;;;;27.43;48.43;101059.23;1689322;83;21100;-81
2022/07/03 07:22:13;;;;;;;4.10;3.70;;;;;;;27.43;48.44;101062.60;1688974;84;21112;-81
2022/07/03 07:24:39;;;;;;;3.95;3.52;;;;;;;27.44;48.44;101066.45;1689034;84;21076;-82
2022/07/03 07:27:06;;;;;;;5.17;3.50;;;;;;;27.44;48.42;101065.62;1718975;82;21557;-81
2022/07/03 07:29:32;;;;;;;3.70;3.40;;;;;;;27.44;48.41;101069.24;1723995;81;21047;-81
2022/07/03 07:31:59;;;;;;;4.05;3.50;;;;;;;27.44;48.43;101065.05;1723704;81;21031;-82
2022/07/03 07:34:31;;;;;;;4.28;3.58;;;;;;;27.44;48.41;101063.66;1724271;81;22061;-82
2022/07/03 07:36:57;;;;;;;4.37;3.90;;;;;;;27.44;48.39;101066.45;1724188;81;21063;-81
2022/07/03 07:39:24;;;;;;;3.50;3.20;;;;;;;27.45;48.37;101066.68;1724072;83;21082;-81
2022/07/03 07:41:50;;;;;;;4.33;3.60;;;;;;;27.45;48.38;101068.08;1724033;83;21345;-81
2022/07/03 07:44:16;;;;;;;3.90;3.50;;;;;;;27.46;48.38;101061.88;1724159;83;20984;-81
2022/07/03 07:46:42;;;;;;;4.08;3.60;;;;;;;27.45;48.37;101067.27;1723864;83;21178;-81
2022/07/03 07:49:09;;;;;;;3.77;3.47;;;;;;;27.46;48.34;101065.48;1702432;83;21068;-81
2022/07/03 07:51:35;;;;;;;5.08;3.65;;;;;;;27.47;48.35;101071.89;1724252;83;21052;-81
2022/07/03 07:54:01;;;;;;;5.33;3.77;;;;;;;27.47;48.34;101075.53;1724008;83;21037;-81
2022/07/03 07:56:27;;;;;;;4.70;3.77;;;;;;;27.48;48.33;101081.36;1724223;81;21056;-81
2022/07/03 07:58:54;;;;;;;3.62;3.33;;;;;;;27.48;48.31;101077.16;1707526;83;21556;-81
2022/07/03 08:06:55;;;;;;;4.00;3.58;;;;;;;27.48;48.29;101075.77;1723561;81;21080;-81
2022/07/03 08:09:22;;;;;;;4.85;3.33;;;;;;;27.48;48.29;101070.18;1723943;83;21100;-81
2022/07/03 08:11:48;;;;;;;4.95;3.83;;;;;;;27.49;48.28;101073.79;1740841;81;21009;-81
2022/07/03 08:14:14;;;;;;;4.30;3.55;;;;;;;27.48;48.28;101081.94;1741205;81;20993;-82
2022/07/03 08:16:42;;;;;;;3.35;3.05;;;;;;;27.48;48.27;101086.13;1741193;81;21036;-82
2022/07/03 08:19:08;;;;;;;3.87;3.47;;;;;;;27.49;48.28;101083.57;1740895;81;21013;-82
2022/07/03 08:21:35;;;;;;;4.60;3.37;;;;;;;27.48;48.27;101086.95;1740961;81;21649;-81
2022/07/03 08:24:01;;;;;;;4.10;3.70;;;;;;;27.48;48.28;101084.73;1741193;81;22154;-81
2022/07/03 08:26:27;;;;;;;4.05;3.58;;;;;;;27.49;48.27;101085.78;1741175;82;21036;-81
2022/07/03 08:28:54;;;;;;;4.20;3.62;;;;;;;27.49;48.28;101088.58;1740688;81;21076;-81
2022/07/03 08:31:20;;;;;;;4.58;3.60;;;;;;;27.50;48.27;101089.36;1741126;81;21009;-81
2022/07/03 08:33:48;;;;;;;4.10;3.70;;;;;;;27.50;48.28;101087.97;1741012;82;21013;-81
2022/07/03 08:36:15;;;;;;;5.08;3.42;;;;;;;27.50;48.27;101092.97;1740799;82;21330;-81
2022/07/03 08:38:41;;;;;;;4.35;3.50;;;;;;;27.50;48.25;101092.16;1740961;82;21637;-81
2022/07/03 08:41:07;;;;;;;4.12;3.40;;;;;;;27.51;48.17;101093.79;1710002;82;21116;-81
2022/07/03 08:43:34;;;;;;;3.80;3.40;;;;;;;27.50;48.15;101089.36;1753510;81;21017;-81
2022/07/03 08:46:00;;;;;;;3.80;3.40;;;;;;;27.50;48.15;101089.36;1753828;81;21601;-81
2022/07/03 08:48:27;;;;;;;4.03;3.60;;;;;;;27.52;48.16;101094.02;1724455;82;21295;-81
2022/07/03 08:50:54;;;;;;;3.60;3.22;;;;;;;27.51;48.14;101096.59;1753778;81;21029;-81
2022/07/03 08:53:20;;;;;;;4.15;3.50;;;;;;;27.51;48.12;101100.20;1720645;82;21572;-81
2022/07/03 08:55:48;;;;;;;4.37;3.95;;;;;;;27.51;48.06;101102.99;1754052;81;21025;-81
2022/07/03 08:58:19;;;;;;;4.15;3.37;;;;;;;27.53;48.02;101104.04;1720304;83;21602;-81
2022/07/03 09:00:45;;;;;;;3.87;3.47;;;;;;;27.51;47.99;101105.78;1754226;81;21144;-81
2022/07/03 09:03:12;;;;;;;3.65;3.35;;;;;;;27.52;47.96;101109.40;1720745;83;20993;-81
2022/07/03 09:05:39;;;;;;;3.85;3.47;;;;;;;27.52;47.99;101103.23;1753757;81;21040;-81
2022/07/03 09:08:09;;;;;;;4.28;3.87;;;;;;;27.51;48.00;101098.80;1720863;83;21546;-81
2022/07/03 09:10:35;;;;;;;4.40;3.47;;;;;;;27.51;48.00;101097.40;1737389;81;21507;-81
2022/07/03 09:13:02;;;;;;;3.90;3.20;;;;;;;27.53;48.02;101098.45;1754428;81;21957;-81
2022/07/03 09:15:28;;;;;;;3.85;3.27;;;;;;;27.52;48.00;101101.02;1745891;81;21011;-81
2022/07/03 09:18:06;;;;;;;3.45;3.15;;;;;;;27.52;47.99;101099.03;1723913;83;21077;-81
2022/07/03 09:20:37;;;;;;;4.80;3.67;;;;;;;27.52;47.97;101100.43;1736085;82;21082;-81
2022/07/03 09:23:19;;;;;;;4.12;3.70;;;;;;;27.51;47.94;101094.61;1736696;82;21078;-81
2022/07/03 09:26:02;;;;;;;3.42;3.12;;;;;;;27.52;47.94;101102.41;1736184;82;21128;-81
2022/07/03 09:28:46;;;;;;;4.08;3.58;;;;;;;27.53;47.92;101097.05;1736428;82;21067;-81
2022/07/03 09:31:15;;;;;;;3.85;3.45;;;;;;;27.52;47.90;101095.42;1712759;82;22289;-81
2022/07/03 09:33:57;;;;;;;3.90;3.40;;;;;;;27.51;47.90;101097.40;1736598;82;21631;-81
2022/07/03 09:36:44;;;;;;;3.72;3.27;;;;;;;27.51;47.91;101090.99;1736241;82;21062;-81
2022/07/03 09:39:24;;;;;;;3.58;3.25;;;;;;;27.50;47.88;101097.16;1715596;82;21155;-81
2022/07/03 09:41:52;;;;;;;;;;;;;;;27.51;47.89;101099.38;1738815;82;21066;-81
2022/07/03 09:44:45;;;;;;;3.85;3.52;;;;;;;27.50;47.87;101096.35;1694754;84;20216;-81
2022/07/03 09:47:20;;;;;;;3.42;3.08;;;;;;;27.49;47.89;101091.95;1710354;83;21510;-81
2022/07/03 09:49:56;;;;;;;3.80;3.40;;;;;;;27.48;47.90;101093.94;1735150;82;20918;-81
2022/07/03 09:52:35;;;;;;;4.28;3.50;;;;;;;27.48;47.90;101088.34;1736194;82;21205;-81
2022/07/03 09:55:13;;;;;;;4.20;3.80;;;;;;;27.49;47.90;101091.37;1723761;83;21470;-81
2022/07/03 09:57:57;;;;;;;3.60;3.10;;;;;;;27.48;47.91;101095.33;1724457;82;21049;-81
2022/07/03 10:00:25;;;;;;;3.92;3.50;;;;;;;27.48;47.91;101088.92;1711944;83;21048;-81
2022/07/03 10:03:09;;;;;;;4.17;3.47;;;;;;;27.48;47.91;101088.92;1705323;84;21061;-81
2022/07/03 10:05:41;;;;;;;4.85;3.55;;;;;;;27.49;47.90;101089.16;1721024;83;22140;-81
2022/07/03 10:08:11;;;;;;;3.65;3.35;;;;;;;27.49;47.86;101084.97;1736236;82;21061;-81
2022/07/03 10:10:42;;;;;;;4.12;3.40;;;;;;;27.50;47.87;101086.56;1723881;83;21510;-81
2022/07/03 10:13:09;;;;;;;4.30;3.67;;;;;;;27.49;47.85;101080.19;1724101;83;21001;-81
2022/07/03 10:15:37;;;;;;;3.83;3.47;;;;;;;27.49;47.84;101074.61;1724612;82;21550;-82
2022/07/03 10:18:09;;;;;;;3.87;3.42;;;;;;;27.49;47.85;101076.00;1724548;83;21558;-81
2022/07/03 10:20:39;;;;;;;3.60;3.00;;;;;;;27.51;47.82;101077.84;1724202;82;21135;-81
2022/07/03 10:23:05;;;;;;;4.08;3.20;;;;;;;27.51;47.81;101078.42;1724586;82;21008;-81
2022/07/03 10:25:32;;;;;;;3.72;3.22;;;;;;;27.50;47.76;101072.59;1724513;82;21046;-81
2022/07/03 10:27:58;;;;;;;3.70;3.40;;;;;;;27.51;47.75;101076.44;1699191;83;21062;-81
2022/07/03 10:30:25;;;;;;;4.55;3.55;;;;;;;27.52;47.76;101067.47;1724539;83;21120;-81
2022/07/03 10:32:53;;;;;;;4.65;3.20;;;;;;;27.52;47.78;101060.48;1724489;82;21015;-81
2022/07/03 10:35:38;;;;;;;3.95;3.50;;;;;;;27.52;47.79;101059.91;1724521;82;21046;-81
2022/07/03 10:38:39;;;;;;;4.10;3.70;;;;;;;27.52;47.75;101055.72;1684528;83;38278;-81
2022/07/03 10:47:04;;;;;;;3.77;3.17;;;;;;;27.62;47.65;101041.80;1724243;83;21109;-81
2022/07/03 10:49:31;;;;;;;3.27;2.92;;;;;;;27.61;47.64;101043.78;1745110;81;21012;-81
2022/07/03 10:52:02;;;;;;;3.65;3.17;;;;;;;27.61;47.68;101052.16;1752302;81;21060;-81
2022/07/03 10:54:39;;;;;;;3.83;3.20;;;;;;;27.59;47.71;101037.72;1751885;81;21022;-82
2022/07/03 10:57:16;;;;;;;3.72;3.42;;;;;;;27.61;47.71;101047.16;1752125;81;21080;-81
2022/07/03 10:59:50;;;;;;;3.75;3.33;;;;;;;27.59;47.72;101039.12;1751947;81;21080;-81
2022/07/03 11:02:39;;;;;;;3.67;3.33;;;;;;;27.58;47.74;101031.90;1752096;81;21439;-81
2022/07/03 11:05:19;;;;;;;4.00;3.60;;;;;;;27.58;47.74;101031.12;1728465;81;21591;-81
2022/07/03 11:07:57;;;;;;;4.42;3.65;;;;;;;27.57;47.77;101034.49;1724834;82;21125;-81
2022/07/03 11:10:29;;;;;;;4.20;3.35;;;;;;;27.56;47.78;101028.67;1724352;83;21166;-81
2022/07/03 11:13:09;;;;;;;4.40;3.12;;;;;;;27.57;47.81;101029.48;1720156;82;21077;-81
2022/07/03 11:15:49;;;;;;;3.40;3.08;;;;;;;27.56;47.82;101025.88;1720542;83;21062;-82
2022/07/03 11:18:31;;;;;;;3.83;3.42;;;;;;;27.56;47.82;101018.89;1720788;83;21631;-81
2022/07/03 11:21:15;;;;;;;3.47;3.17;;;;;;;27.56;47.85;101019.47;1720370;83;21509;-81
2022/07/03 11:23:59;;;;;;;5.20;3.30;;;;;;;27.55;47.86;101013.06;1720654;83;21552;-81
2022/07/03 11:26:25;;;;;;;4.17;2.87;;;;;;;27.56;47.85;101011.09;1720352;83;21533;-81
2022/07/03 11:28:53;;;;;;;4.05;3.50;;;;;;;27.55;47.88;100999.09;1720667;83;21074;-81
2022/07/03 11:31:22;;;;;;;4.03;3.40;;;;;;;27.56;47.90;101002.70;1720645;83;21066;-81
2022/07/03 11:33:56;;;;;;;3.80;3.45;;;;;;;27.56;47.92;101008.29;1720769;83;21118;-81
2022/07/03 11:36:31;;;;;;;3.60;3.30;;;;;;;27.55;47.93;101003.28;1720550;83;22012;-81
2022/07/03 11:39:05;;;;;;;4.78;3.70;;;;;;;27.55;47.93;101000.48;1726590;82;21531;-81
2022/07/03 11:41:40;;;;;;;3.90;3.58;;;;;;;27.55;47.95;100992.69;1741124;82;21587;-81
2022/07/03 11:44:08;;;;;;;3.70;3.30;;;;;;;27.56;47.97;100998.51;1740798;81;21458;-81
2022/07/03 11:46:38;;;;;;;3.90;3.50;;;;;;;27.56;47.94;100997.92;1741110;82;21654;-81
2022/07/03 11:49:16;;;;;;;3.30;3.00;;;;;;;27.57;47.97;100993.16;1729105;82;21145;-81
2022/07/03 11:51:54;;;;;;;3.95;3.40;;;;;;;27.57;47.97;100990.36;1720228;83;21031;-81
2022/07/03 11:54:20;;;;;;;3.45;3.05;;;;;;;27.56;47.94;100981.16;1720474;83;21571;-81
2022/07/03 11:56:46;;;;;;;4.08;3.62;;;;;;;27.57;47.98;100980.58;1720225;83;21090;-81